This is the latest recevied weather packets stored in our database for station/object KI8L. If no packets are shown the sender has not sent any weather packets the latest 10 day(s).
| Time | Temp. | Humidity | Pressure | Rain* | Wind** | Luminosity | Snow |
|---|---|---|---|---|---|---|---|
| 1777994252 | 20° C | 65% | 1009.4 hPa | 0 mm | - | 503 W/m² | - |
| 1777993950 | 20° C | 69% | 1008.9 hPa | 0 mm | - | 495 W/m² | - |
| 1777993646 | 20° C | 69% | 1009.2 hPa | 0 mm | - | 505 W/m² | - |
| 1777993344 | 20° C | 69% | 1009.2 hPa | 0 mm | - | 497 W/m² | - |
| 1777993044 | 19.44° C | 69% | 1009.4 hPa | 0 mm | - | 432 W/m² | - |
| 1777992743 | 19.44° C | 69% | 1009.2 hPa | 0 mm | - | 437 W/m² | - |
| 1777992440 | 20° C | 67% | 1009.5 hPa | 0 mm | - | 469 W/m² | - |
| 1777992138 | 20° C | 73% | 1009.1 hPa | 0 mm | - | 487 W/m² | - |
| 1777991835 | 19.44° C | 72% | 1009 hPa | 0 mm | - | 466 W/m² | - |
| 1777991532 | 19.44° C | 73% | 1009.2 hPa | 0 mm | - | 417 W/m² | - |
| 1777991229 | 19.44° C | 71% | 1009.2 hPa | 0 mm | - | 413 W/m² | - |
| 1777990926 | 18.89° C | 74% | 1009.2 hPa | 0 mm | - | 424 W/m² | - |
| 1777990624 | 18.89° C | 72% | 1009.2 hPa | 0 mm | - | 414 W/m² | - |
| 1777990017 | 18.33° C | 73% | 1009.3 hPa | 0 mm | - | 411 W/m² | - |
| 1777989714 | 18.33° C | 73% | 1009.4 hPa | 0 mm | - | 399 W/m² | - |
| 1777989410 | 18.33° C | 75% | 1009.4 hPa | 0 mm | - | 381 W/m² | - |
| 1777989107 | 17.78° C | 74% | 1009.4 hPa | 0 mm | - | 346 W/m² | - |
| 1777988802 | 17.78° C | 77% | 1009.4 hPa | 0 mm | - | 372 W/m² | - |
| 1777988500 | 17.78° C | 78% | 1009.5 hPa | 0 mm | - | 335 W/m² | - |
| 1777988197 | 17.78° C | 80% | 1009.3 hPa | 0 mm | - | 334 W/m² | - |
| 1777987893 | 17.22° C | 80% | 1009.5 hPa | 0 mm | - | 361 W/m² | - |
| 1777987589 | 17.22° C | 81% | 1009.6 hPa | 0 mm | - | 304 W/m² | - |
| 1777987287 | 16.67° C | 82% | 1009.6 hPa | 0 mm | - | 184 W/m² | - |
| 1777986983 | 16.67° C | 83% | 1009.5 hPa | 0 mm | - | 96 W/m² | - |
| 1777986681 | 16.67° C | 84% | 1009.2 hPa | 0 mm | - | 70 W/m² | - |
* Rain latest hour (hover to see other rain measurements)
** Current wind speed in m/s (hover to see current wind gust speed)